sensor_id;sensor_type;location;lat;lon;timestamp;P1;durP1;ratioP1;P2;durP2;ratioP2
71963;SDS011;59834;52.124;5.422;2022-08-30T00:02:11;3.23;;;1.40;;
71963;SDS011;59834;52.124;5.422;2022-08-30T00:04:52;2.67;;;1.30;;
71963;SDS011;59834;52.124;5.422;2022-08-30T00:07:19;6.70;;;1.38;;
71963;SDS011;59834;52.124;5.422;2022-08-30T00:09:49;7.78;;;1.30;;
71963;SDS011;59834;52.124;5.422;2022-08-30T00:12:16;3.58;;;1.52;;
71963;SDS011;59834;52.124;5.422;2022-08-30T00:14:43;2.50;;;0.87;;
71963;SDS011;59834;52.124;5.422;2022-08-30T00:17:11;6.03;;;1.83;;
71963;SDS011;59834;52.124;5.422;2022-08-30T00:19:52;2.75;;;1.25;;
71963;SDS011;59834;52.124;5.422;2022-08-30T00:22:23;4.38;;;1.27;;
71963;SDS011;59834;52.124;5.422;2022-08-30T00:24:50;2.55;;;0.98;;
71963;SDS011;59834;52.124;5.422;2022-08-30T00:30:32;4.32;;;1.42;;
71963;SDS011;59834;52.124;5.422;2022-08-30T00:33:01;3.35;;;2.20;;
71963;SDS011;59834;52.124;5.422;2022-08-30T00:35:31;5.68;;;1.77;;
71963;SDS011;59834;52.124;5.422;2022-08-30T00:38:47;7.60;;;1.50;;
71963;SDS011;59834;52.124;5.422;2022-08-30T00:41:15;4.20;;;1.77;;
71963;SDS011;59834;52.124;5.422;2022-08-30T00:43:44;2.53;;;1.50;;
71963;SDS011;59834;52.124;5.422;2022-08-30T00:46:11;4.82;;;1.80;;
71963;SDS011;59834;52.124;5.422;2022-08-30T00:48:44;2.17;;;1.13;;
71963;SDS011;59834;52.124;5.422;2022-08-30T00:51:42;4.63;;;1.98;;
71963;SDS011;59834;52.124;5.422;2022-08-30T00:54:11;2.73;;;1.33;;
71963;SDS011;59834;52.124;5.422;2022-08-30T00:56:58;2.88;;;1.25;;
71963;SDS011;59834;52.124;5.422;2022-08-30T00:59:32;7.03;;;1.85;;
71963;SDS011;59834;52.124;5.422;2022-08-30T01:02:02;4.35;;;1.48;;
71963;SDS011;59834;52.124;5.422;2022-08-30T01:04:34;3.17;;;1.40;;
71963;SDS011;59834;52.124;5.422;2022-08-30T01:07:09;3.93;;;1.73;;
71963;SDS011;59834;52.124;5.422;2022-08-30T01:09:50;8.18;;;2.97;;
71963;SDS011;59834;52.124;5.422;2022-08-30T01:12:19;4.80;;;2.10;;
71963;SDS011;59834;52.124;5.422;2022-08-30T01:14:48;7.03;;;2.28;;
71963;SDS011;59834;52.124;5.422;2022-08-30T01:17:17;3.17;;;1.90;;
71963;SDS011;59834;52.124;5.422;2022-08-30T01:19:58;6.77;;;1.90;;
71963;SDS011;59834;52.124;5.422;2022-08-30T01:22:57;5.13;;;1.75;;
71963;SDS011;59834;52.124;5.422;2022-08-30T01:25:28;4.50;;;2.08;;
71963;SDS011;59834;52.124;5.422;2022-08-30T01:28:06;4.78;;;2.03;;
71963;SDS011;59834;52.124;5.422;2022-08-30T01:30:40;3.35;;;2.40;;
71963;SDS011;59834;52.124;5.422;2022-08-30T01:33:24;4.03;;;1.73;;
71963;SDS011;59834;52.124;5.422;2022-08-30T01:35:58;4.63;;;2.10;;
71963;SDS011;59834;52.124;5.422;2022-08-30T01:38:28;2.65;;;1.80;;
71963;SDS011;59834;52.124;5.422;2022-08-30T01:41:14;3.00;;;2.28;;
71963;SDS011;59834;52.124;5.422;2022-08-30T01:43:53;7.40;;;2.00;;
71963;SDS011;59834;52.124;5.422;2022-08-30T01:46:31;3.23;;;2.27;;
71963;SDS011;59834;52.124;5.422;2022-08-30T01:49:12;3.92;;;2.17;;
71963;SDS011;59834;52.124;5.422;2022-08-30T01:51:41;3.40;;;2.15;;
71963;SDS011;59834;52.124;5.422;2022-08-30T01:54:22;6.70;;;2.08;;
71963;SDS011;59834;52.124;5.422;2022-08-30T01:57:05;4.38;;;2.78;;
71963;SDS011;59834;52.124;5.422;2022-08-30T01:59:38;3.43;;;2.80;;
71963;SDS011;59834;52.124;5.422;2022-08-30T02:02:13;4.38;;;2.88;;
71963;SDS011;59834;52.124;5.422;2022-08-30T02:05:13;5.50;;;2.85;;
71963;SDS011;59834;52.124;5.422;2022-08-30T02:07:54;4.13;;;2.35;;
71963;SDS011;59834;52.124;5.422;2022-08-30T02:10:27;4.35;;;2.33;;
71963;SDS011;59834;52.124;5.422;2022-08-30T02:12:58;2.90;;;1.90;;
71963;SDS011;59834;52.124;5.422;2022-08-30T02:15:25;6.07;;;2.58;;
71963;SDS011;59834;52.124;5.422;2022-08-30T02:17:51;7.45;;;3.10;;
71963;SDS011;59834;52.124;5.422;2022-08-30T02:20:18;5.57;;;3.25;;
71963;SDS011;59834;52.124;5.422;2022-08-30T02:22:49;3.53;;;2.72;;
71963;SDS011;59834;52.124;5.422;2022-08-30T02:25:18;4.03;;;2.40;;
71963;SDS011;59834;52.124;5.422;2022-08-30T02:27:46;4.15;;;2.72;;
71963;SDS011;59834;52.124;5.422;2022-08-30T02:30:15;6.93;;;3.00;;
71963;SDS011;59834;52.124;5.422;2022-08-30T02:32:42;7.80;;;3.30;;
71963;SDS011;59834;52.124;5.422;2022-08-30T02:35:10;3.25;;;2.58;;
71963;SDS011;59834;52.124;5.422;2022-08-30T02:37:42;3.67;;;3.10;;
71963;SDS011;59834;52.124;5.422;2022-08-30T02:40:11;3.38;;;2.63;;
71963;SDS011;59834;52.124;5.422;2022-08-30T02:42:40;4.40;;;3.08;;
71963;SDS011;59834;52.124;5.422;2022-08-30T02:45:12;9.10;;;3.40;;
71963;SDS011;59834;52.124;5.422;2022-08-30T02:47:43;3.70;;;3.00;;
71963;SDS011;59834;52.124;5.422;2022-08-30T02:50:15;11.30;;;3.80;;
71963;SDS011;59834;52.124;5.422;2022-08-30T02:53:09;4.30;;;3.13;;
71963;SDS011;59834;52.124;5.422;2022-08-30T02:58:34;4.47;;;3.28;;
71963;SDS011;59834;52.124;5.422;2022-08-30T03:01:12;3.85;;;2.92;;
71963;SDS011;59834;52.124;5.422;2022-08-30T03:03:43;4.00;;;3.27;;
71963;SDS011;59834;52.124;5.422;2022-08-30T03:06:12;5.15;;;3.65;;
71963;SDS011;59834;52.124;5.422;2022-08-30T03:08:46;4.80;;;3.55;;
71963;SDS011;59834;52.124;5.422;2022-08-30T03:11:15;6.43;;;3.75;;
71963;SDS011;59834;52.124;5.422;2022-08-30T03:13:47;5.22;;;3.05;;
71963;SDS011;59834;52.124;5.422;2022-08-30T03:16:17;5.60;;;3.90;;
71963;SDS011;59834;52.124;5.422;2022-08-30T03:18:45;6.90;;;3.08;;
71963;SDS011;59834;52.124;5.422;2022-08-30T03:21:14;5.63;;;3.83;;
71963;SDS011;59834;52.124;5.422;2022-08-30T03:23:43;5.35;;;3.53;;
71963;SDS011;59834;52.124;5.422;2022-08-30T03:26:13;4.30;;;3.45;;
71963;SDS011;59834;52.124;5.422;2022-08-30T03:28:40;4.33;;;3.60;;
71963;SDS011;59834;52.124;5.422;2022-08-30T03:31:14;5.50;;;3.67;;
71963;SDS011;59834;52.124;5.422;2022-08-30T03:33:42;6.60;;;4.13;;
71963;SDS011;59834;52.124;5.422;2022-08-30T03:39:40;4.07;;;3.60;;
71963;SDS011;59834;52.124;5.422;2022-08-30T03:42:09;4.33;;;3.70;;
71963;SDS011;59834;52.124;5.422;2022-08-30T03:44:43;4.65;;;3.75;;
71963;SDS011;59834;52.124;5.422;2022-08-30T03:47:16;6.15;;;4.15;;
71963;SDS011;59834;52.124;5.422;2022-08-30T03:52:44;5.47;;;4.25;;
71963;SDS011;59834;52.124;5.422;2022-08-30T03:55:13;4.10;;;3.70;;
71963;SDS011;59834;52.124;5.422;2022-08-30T03:58:03;10.00;;;4.10;;
71963;SDS011;59834;52.124;5.422;2022-08-30T04:00:34;4.80;;;3.92;;
71963;SDS011;59834;52.124;5.422;2022-08-30T04:03:12;5.13;;;4.00;;
71963;SDS011;59834;52.124;5.422;2022-08-30T04:05:44;5.30;;;4.07;;
71963;SDS011;59834;52.124;5.422;2022-08-30T04:08:13;4.10;;;3.13;;
71963;SDS011;59834;52.124;5.422;2022-08-30T04:10:46;9.10;;;5.47;;
71963;SDS011;59834;52.124;5.422;2022-08-30T04:13:19;7.45;;;4.90;;
71963;SDS011;59834;52.124;5.422;2022-08-30T04:15:49;5.22;;;4.00;;
71963;SDS011;59834;52.124;5.422;2022-08-30T04:18:16;5.60;;;4.38;;
71963;SDS011;59834;52.124;5.422;2022-08-30T04:20:45;7.33;;;4.33;;
71963;SDS011;59834;52.124;5.422;2022-08-30T04:23:23;9.05;;;3.97;;
71963;SDS011;59834;52.124;5.422;2022-08-30T04:25:58;5.85;;;4.22;;
71963;SDS011;59834;52.124;5.422;2022-08-30T04:28:25;8.43;;;4.13;;
71963;SDS011;59834;52.124;5.422;2022-08-30T04:34:56;7.33;;;4.37;;
71963;SDS011;59834;52.124;5.422;2022-08-30T04:44:00;9.45;;;4.50;;
71963;SDS011;59834;52.124;5.422;2022-08-30T04:46:34;6.38;;;4.07;;
71963;SDS011;59834;52.124;5.422;2022-08-30T04:49:11;4.67;;;3.67;;
71963;SDS011;59834;52.124;5.422;2022-08-30T04:51:40;8.18;;;4.50;;
71963;SDS011;59834;52.124;5.422;2022-08-30T04:57:28;4.60;;;4.00;;
71963;SDS011;59834;52.124;5.422;2022-08-30T05:00:18;6.38;;;4.40;;
71963;SDS011;59834;52.124;5.422;2022-08-30T05:03:10;7.30;;;3.83;;
71963;SDS011;59834;52.124;5.422;2022-08-30T05:05:55;5.88;;;4.00;;
71963;SDS011;59834;52.124;5.422;2022-08-30T05:08:45;8.18;;;4.25;;
71963;SDS011;59834;52.124;5.422;2022-08-30T05:14:32;7.65;;;3.90;;
71963;SDS011;59834;52.124;5.422;2022-08-30T05:17:09;8.67;;;4.07;;
71963;SDS011;59834;52.124;5.422;2022-08-30T05:19:38;7.40;;;4.25;;
71963;SDS011;59834;52.124;5.422;2022-08-30T05:22:11;4.72;;;4.10;;
71963;SDS011;59834;52.124;5.422;2022-08-30T05:24:55;5.07;;;4.57;;
71963;SDS011;59834;52.124;5.422;2022-08-30T05:27:23;7.85;;;3.72;;
71963;SDS011;59834;52.124;5.422;2022-08-30T05:30:02;9.93;;;4.30;;
71963;SDS011;59834;52.124;5.422;2022-08-30T05:32:39;5.05;;;3.85;;
71963;SDS011;59834;52.124;5.422;2022-08-30T05:35:11;5.45;;;3.90;;
71963;SDS011;59834;52.124;5.422;2022-08-30T05:37:48;6.20;;;4.15;;
71963;SDS011;59834;52.124;5.422;2022-08-30T05:40:18;5.68;;;4.15;;
71963;SDS011;59834;52.124;5.422;2022-08-30T05:50:17;8.18;;;3.50;;
71963;SDS011;59834;52.124;5.422;2022-08-30T05:59:03;7.03;;;2.90;;
71963;SDS011;59834;52.124;5.422;2022-08-30T06:01:44;6.25;;;3.00;;
71963;SDS011;59834;52.124;5.422;2022-08-30T06:04:17;5.70;;;2.80;;
71963;SDS011;59834;52.124;5.422;2022-08-30T06:07:12;4.70;;;2.88;;
71963;SDS011;59834;52.124;5.422;2022-08-30T06:09:48;5.70;;;3.45;;
71963;SDS011;59834;52.124;5.422;2022-08-30T06:12:38;3.40;;;2.60;;
71963;SDS011;59834;52.124;5.422;2022-08-30T06:15:20;4.80;;;2.50;;
71963;SDS011;59834;52.124;5.422;2022-08-30T06:24:06;4.72;;;2.80;;
71963;SDS011;59834;52.124;5.422;2022-08-30T06:26:45;3.77;;;2.33;;
71963;SDS011;59834;52.124;5.422;2022-08-30T06:29:23;5.28;;;2.55;;
71963;SDS011;59834;52.124;5.422;2022-08-30T06:32:36;4.55;;;2.63;;
71963;SDS011;59834;52.124;5.422;2022-08-30T06:42:12;4.63;;;2.33;;
71963;SDS011;59834;52.124;5.422;2022-08-30T06:45:34;3.15;;;2.00;;
71963;SDS011;59834;52.124;5.422;2022-08-30T06:48:15;3.67;;;2.00;;
71963;SDS011;59834;52.124;5.422;2022-08-30T06:50:51;4.00;;;1.90;;
71963;SDS011;59834;52.124;5.422;2022-08-30T06:53:47;3.75;;;1.90;;
71963;SDS011;59834;52.124;5.422;2022-08-30T06:56:20;2.13;;;1.57;;
71963;SDS011;59834;52.124;5.422;2022-08-30T06:58:53;3.83;;;1.70;;
71963;SDS011;59834;52.124;5.422;2022-08-30T07:01:34;2.65;;;1.20;;
71963;SDS011;59834;52.124;5.422;2022-08-30T07:04:14;6.90;;;1.52;;
71963;SDS011;59834;52.124;5.422;2022-08-30T07:06:48;2.63;;;1.38;;
71963;SDS011;59834;52.124;5.422;2022-08-30T07:09:17;3.10;;;1.47;;
71963;SDS011;59834;52.124;5.422;2022-08-30T07:11:48;4.32;;;1.27;;
71963;SDS011;59834;52.124;5.422;2022-08-30T07:14:18;5.25;;;1.50;;
71963;SDS011;59834;52.124;5.422;2022-08-30T07:16:48;2.55;;;1.13;;
71963;SDS011;59834;52.124;5.422;2022-08-30T07:19:18;4.03;;;0.85;;
71963;SDS011;59834;52.124;5.422;2022-08-30T07:21:46;2.80;;;0.90;;
71963;SDS011;59834;52.124;5.422;2022-08-30T07:24:18;4.40;;;1.08;;
71963;SDS011;59834;52.124;5.422;2022-08-30T07:30:25;4.15;;;0.50;;
71963;SDS011;59834;52.124;5.422;2022-08-30T07:32:51;3.50;;;0.40;;
71963;SDS011;59834;52.124;5.422;2022-08-30T07:35:18;3.40;;;0.67;;
71963;SDS011;59834;52.124;5.422;2022-08-30T07:37:44;2.15;;;0.40;;
71963;SDS011;59834;52.124;5.422;2022-08-30T07:40:11;2.78;;;1.05;;
71963;SDS011;59834;52.124;5.422;2022-08-30T07:42:38;1.08;;;0.22;;
71963;SDS011;59834;52.124;5.422;2022-08-30T07:45:06;1.52;;;0.40;;
71963;SDS011;59834;52.124;5.422;2022-08-30T07:47:34;4.90;;;0.33;;
71963;SDS011;59834;52.124;5.422;2022-08-30T07:50:01;1.92;;;0.43;;
71963;SDS011;59834;52.124;5.422;2022-08-30T07:52:30;7.07;;;0.30;;
71963;SDS011;59834;52.124;5.422;2022-08-30T07:54:57;3.15;;;0.30;;
71963;SDS011;59834;52.124;5.422;2022-08-30T07:57:24;0.90;;;0.20;;
71963;SDS011;59834;52.124;5.422;2022-08-30T07:59:51;1.37;;;0.30;;
71963;SDS011;59834;52.124;5.422;2022-08-30T08:02:18;3.08;;;0.40;;
71963;SDS011;59834;52.124;5.422;2022-08-30T08:04:45;1.13;;;0.20;;
71963;SDS011;59834;52.124;5.422;2022-08-30T08:07:13;2.47;;;0.20;;
71963;SDS011;59834;52.124;5.422;2022-08-30T08:09:41;3.90;;;0.30;;
71963;SDS011;59834;52.124;5.422;2022-08-30T08:12:07;3.33;;;0.33;;
71963;SDS011;59834;52.124;5.422;2022-08-30T08:14:34;1.40;;;0.30;;
71963;SDS011;59834;52.124;5.422;2022-08-30T08:17:01;1.55;;;0.30;;
71963;SDS011;59834;52.124;5.422;2022-08-30T08:19:28;6.22;;;0.40;;
71963;SDS011;59834;52.124;5.422;2022-08-30T08:21:54;2.42;;;0.43;;
71963;SDS011;59834;52.124;5.422;2022-08-30T08:24:45;1.10;;;0.30;;
71963;SDS011;59834;52.124;5.422;2022-08-30T08:27:12;2.67;;;0.20;;
71963;SDS011;59834;52.124;5.422;2022-08-30T08:29:38;3.15;;;0.40;;
71963;SDS011;59834;52.124;5.422;2022-08-30T08:32:05;3.97;;;0.25;;
71963;SDS011;59834;52.124;5.422;2022-08-30T08:34:33;2.20;;;0.35;;
71963;SDS011;59834;52.124;5.422;2022-08-30T08:37:00;1.30;;;0.20;;
71963;SDS011;59834;52.124;5.422;2022-08-30T08:39:27;1.08;;;0.43;;
71963;SDS011;59834;52.124;5.422;2022-08-30T08:42:00;1.20;;;0.20;;
71963;SDS011;59834;52.124;5.422;2022-08-30T08:49:39;1.20;;;0.20;;
71963;SDS011;59834;52.124;5.422;2022-08-30T08:52:12;3.63;;;0.77;;
71963;SDS011;59834;52.124;5.422;2022-08-30T08:55:06;1.85;;;0.20;;
71963;SDS011;59834;52.124;5.422;2022-08-30T08:57:36;2.00;;;0.40;;
71963;SDS011;59834;52.124;5.422;2022-08-30T09:00:04;0.80;;;0.20;;
71963;SDS011;59834;52.124;5.422;2022-08-30T09:02:36;1.93;;;0.37;;
71963;SDS011;59834;52.124;5.422;2022-08-30T09:05:07;3.42;;;0.30;;
71963;SDS011;59834;52.124;5.422;2022-08-30T09:07:47;2.45;;;0.20;;
71963;SDS011;59834;52.124;5.422;2022-08-30T09:10:20;1.42;;;0.30;;
71963;SDS011;59834;52.124;5.422;2022-08-30T09:13:09;1.35;;;0.25;;
71963;SDS011;59834;52.124;5.422;2022-08-30T09:15:39;2.43;;;0.30;;
71963;SDS011;59834;52.124;5.422;2022-08-30T09:18:06;1.63;;;0.20;;
71963;SDS011;59834;52.124;5.422;2022-08-30T09:20:46;2.15;;;0.30;;
71963;SDS011;59834;52.124;5.422;2022-08-30T09:25:59;1.13;;;0.20;;
71963;SDS011;59834;52.124;5.422;2022-08-30T09:28:29;5.60;;;1.17;;
71963;SDS011;59834;52.124;5.422;2022-08-30T09:31:04;4.07;;;0.40;;
71963;SDS011;59834;52.124;5.422;2022-08-30T09:36:39;1.27;;;0.60;;
71963;SDS011;59834;52.124;5.422;2022-08-30T09:39:29;4.63;;;0.20;;
71963;SDS011;59834;52.124;5.422;2022-08-30T09:42:17;1.60;;;0.40;;
71963;SDS011;59834;52.124;5.422;2022-08-30T09:45:10;0.70;;;0.20;;
71963;SDS011;59834;52.124;5.422;2022-08-30T09:47:45;1.00;;;0.22;;
71963;SDS011;59834;52.124;5.422;2022-08-30T09:50:16;6.18;;;0.50;;
71963;SDS011;59834;52.124;5.422;2022-08-30T09:56:07;1.70;;;0.30;;
71963;SDS011;59834;52.124;5.422;2022-08-30T09:58:42;3.85;;;0.40;;
71963;SDS011;59834;52.124;5.422;2022-08-30T10:05:00;1.58;;;0.30;;
71963;SDS011;59834;52.124;5.422;2022-08-30T10:10:30;2.27;;;0.30;;
71963;SDS011;59834;52.124;5.422;2022-08-30T10:18:48;5.00;;;0.30;;
71963;SDS011;59834;52.124;5.422;2022-08-30T10:21:32;3.30;;;0.30;;
71963;SDS011;59834;52.124;5.422;2022-08-30T10:24:19;2.93;;;0.30;;
71963;SDS011;59834;52.124;5.422;2022-08-30T10:27:06;1.25;;;0.20;;
71963;SDS011;59834;52.124;5.422;2022-08-30T10:29:50;1.45;;;0.40;;
71963;SDS011;59834;52.124;5.422;2022-08-30T10:32:28;1.42;;;0.30;;
71963;SDS011;59834;52.124;5.422;2022-08-30T10:35:21;2.25;;;0.20;;
71963;SDS011;59834;52.124;5.422;2022-08-30T10:38:05;1.23;;;0.43;;
71963;SDS011;59834;52.124;5.422;2022-08-30T10:40:41;2.08;;;0.40;;
71963;SDS011;59834;52.124;5.422;2022-08-30T10:46:09;0.60;;;0.25;;
71963;SDS011;59834;52.124;5.422;2022-08-30T10:48:44;2.28;;;0.30;;
71963;SDS011;59834;52.124;5.422;2022-08-30T10:51:14;2.23;;;0.40;;
71963;SDS011;59834;52.124;5.422;2022-08-30T10:53:51;1.30;;;0.47;;
71963;SDS011;59834;52.124;5.422;2022-08-30T10:56:23;1.45;;;0.30;;
71963;SDS011;59834;52.124;5.422;2022-08-30T10:58:52;1.88;;;0.45;;
71963;SDS011;59834;52.124;5.422;2022-08-30T11:04:19;3.13;;;0.23;;
71963;SDS011;59834;52.124;5.422;2022-08-30T11:10:02;2.95;;;0.60;;
71963;SDS011;59834;52.124;5.422;2022-08-30T11:15:30;2.15;;;0.30;;
71963;SDS011;59834;52.124;5.422;2022-08-30T11:18:10;4.87;;;0.97;;
71963;SDS011;59834;52.124;5.422;2022-08-30T11:20:41;1.38;;;0.40;;
71963;SDS011;59834;52.124;5.422;2022-08-30T11:39:59;1.27;;;0.30;;
71963;SDS011;59834;52.124;5.422;2022-08-30T11:42:47;1.20;;;0.30;;
71963;SDS011;59834;52.124;5.422;2022-08-30T11:47:52;3.40;;;0.28;;
71963;SDS011;59834;52.124;5.422;2022-08-30T11:53:15;1.95;;;0.43;;
71963;SDS011;59834;52.124;5.422;2022-08-30T11:55:59;1.73;;;0.40;;
71963;SDS011;59834;52.124;5.422;2022-08-30T12:11:59;2.13;;;0.38;;
71963;SDS011;59834;52.124;5.422;2022-08-30T12:17:26;1.52;;;0.25;;
71963;SDS011;59834;52.124;5.422;2022-08-30T12:22:48;2.05;;;0.30;;
71963;SDS011;59834;52.124;5.422;2022-08-30T12:25:27;7.03;;;1.00;;
71963;SDS011;59834;52.124;5.422;2022-08-30T12:28:10;0.87;;;0.40;;
71963;SDS011;59834;52.124;5.422;2022-08-30T12:30:42;1.30;;;0.20;;
71963;SDS011;59834;52.124;5.422;2022-08-30T12:33:13;2.58;;;0.20;;
71963;SDS011;59834;52.124;5.422;2022-08-30T12:35:54;1.88;;;0.30;;
71963;SDS011;59834;52.124;5.422;2022-08-30T12:38:23;2.78;;;0.30;;
71963;SDS011;59834;52.124;5.422;2022-08-30T12:40:54;3.67;;;0.47;;
71963;SDS011;59834;52.124;5.422;2022-08-30T12:43:29;1.38;;;0.30;;
71963;SDS011;59834;52.124;5.422;2022-08-30T12:46:07;2.17;;;0.30;;
71963;SDS011;59834;52.124;5.422;2022-08-30T12:48:37;0.93;;;0.30;;
71963;SDS011;59834;52.124;5.422;2022-08-30T12:51:06;2.95;;;0.40;;
71963;SDS011;59834;52.124;5.422;2022-08-30T12:53:37;2.20;;;0.40;;
71963;SDS011;59834;52.124;5.422;2022-08-30T12:56:13;0.93;;;0.30;;
71963;SDS011;59834;52.124;5.422;2022-08-30T13:01:28;1.98;;;0.70;;
71963;SDS011;59834;52.124;5.422;2022-08-30T13:03:59;1.83;;;0.30;;
71963;SDS011;59834;52.124;5.422;2022-08-30T13:06:41;1.07;;;0.37;;
71963;SDS011;59834;52.124;5.422;2022-08-30T13:09:25;1.65;;;0.40;;
71963;SDS011;59834;52.124;5.422;2022-08-30T13:11:58;2.88;;;0.43;;
71963;SDS011;59834;52.124;5.422;2022-08-30T13:14:44;1.77;;;0.40;;
71963;SDS011;59834;52.124;5.422;2022-08-30T13:22:35;3.25;;;0.57;;
71963;SDS011;59834;52.124;5.422;2022-08-30T13:25:03;4.78;;;1.00;;
71963;SDS011;59834;52.124;5.422;2022-08-30T13:27:32;1.52;;;0.70;;
71963;SDS011;59834;52.124;5.422;2022-08-30T13:30:09;3.83;;;0.75;;
71963;SDS011;59834;52.124;5.422;2022-08-30T13:32:39;3.47;;;0.70;;
71963;SDS011;59834;52.124;5.422;2022-08-30T13:35:06;4.32;;;0.70;;
71963;SDS011;59834;52.124;5.422;2022-08-30T13:37:33;1.83;;;0.68;;
71963;SDS011;59834;52.124;5.422;2022-08-30T13:40:17;3.00;;;0.57;;
71963;SDS011;59834;52.124;5.422;2022-08-30T13:42:46;1.70;;;0.52;;
71963;SDS011;59834;52.124;5.422;2022-08-30T13:45:14;8.23;;;1.27;;
71963;SDS011;59834;52.124;5.422;2022-08-30T13:48:01;5.07;;;1.30;;
71963;SDS011;59834;52.124;5.422;2022-08-30T13:50:29;4.68;;;1.40;;
71963;SDS011;59834;52.124;5.422;2022-08-30T13:52:56;5.68;;;1.40;;
71963;SDS011;59834;52.124;5.422;2022-08-30T13:55:22;1.90;;;1.00;;
71963;SDS011;59834;52.124;5.422;2022-08-30T13:57:49;2.53;;;1.20;;
71963;SDS011;59834;52.124;5.422;2022-08-30T14:00:20;2.15;;;1.00;;
71963;SDS011;59834;52.124;5.422;2022-08-30T14:02:49;3.08;;;1.08;;
71963;SDS011;59834;52.124;5.422;2022-08-30T14:05:24;2.45;;;0.75;;
71963;SDS011;59834;52.124;5.422;2022-08-30T14:08:14;4.07;;;1.40;;
71963;SDS011;59834;52.124;5.422;2022-08-30T14:11:01;1.63;;;0.70;;
71963;SDS011;59834;52.124;5.422;2022-08-30T14:13:28;1.55;;;0.70;;
71963;SDS011;59834;52.124;5.422;2022-08-30T14:15:55;5.07;;;0.90;;
71963;SDS011;59834;52.124;5.422;2022-08-30T14:18:44;3.47;;;0.68;;
71963;SDS011;59834;52.124;5.422;2022-08-30T14:21:11;2.75;;;0.50;;
71963;SDS011;59834;52.124;5.422;2022-08-30T14:23:37;2.20;;;0.87;;
71963;SDS011;59834;52.124;5.422;2022-08-30T14:26:05;2.95;;;0.77;;
71963;SDS011;59834;52.124;5.422;2022-08-30T14:28:38;2.58;;;0.40;;
71963;SDS011;59834;52.124;5.422;2022-08-30T14:31:05;1.55;;;0.50;;
71963;SDS011;59834;52.124;5.422;2022-08-30T14:33:32;1.55;;;0.40;;
71963;SDS011;59834;52.124;5.422;2022-08-30T14:35:58;1.87;;;0.50;;
71963;SDS011;59834;52.124;5.422;2022-08-30T14:38:25;0.93;;;0.43;;
71963;SDS011;59834;52.124;5.422;2022-08-30T14:40:51;1.73;;;0.50;;
71963;SDS011;59834;52.124;5.422;2022-08-30T14:43:17;1.25;;;0.50;;
71963;SDS011;59834;52.124;5.422;2022-08-30T14:45:44;2.58;;;0.55;;
71963;SDS011;59834;52.124;5.422;2022-08-30T14:48:11;3.87;;;0.50;;
71963;SDS011;59834;52.124;5.422;2022-08-30T14:50:40;1.38;;;0.50;;
71963;SDS011;59834;52.124;5.422;2022-08-30T14:53:06;2.75;;;0.50;;
71963;SDS011;59834;52.124;5.422;2022-08-30T14:55:33;2.33;;;0.50;;
71963;SDS011;59834;52.124;5.422;2022-08-30T14:58:00;2.80;;;0.50;;
71963;SDS011;59834;52.124;5.422;2022-08-30T15:00:29;1.30;;;0.30;;
71963;SDS011;59834;52.124;5.422;2022-08-30T15:02:56;5.68;;;0.50;;
71963;SDS011;59834;52.124;5.422;2022-08-30T15:05:22;1.98;;;0.50;;
71963;SDS011;59834;52.124;5.422;2022-08-30T15:07:49;2.88;;;0.50;;
71963;SDS011;59834;52.124;5.422;2022-08-30T15:10:16;1.75;;;0.40;;
71963;SDS011;59834;52.124;5.422;2022-08-30T15:12:48;4.87;;;0.50;;
71963;SDS011;59834;52.124;5.422;2022-08-30T15:15:19;2.55;;;0.40;;
71963;SDS011;59834;52.124;5.422;2022-08-30T15:17:47;4.82;;;0.50;;
71963;SDS011;59834;52.124;5.422;2022-08-30T15:20:14;1.83;;;0.50;;
71963;SDS011;59834;52.124;5.422;2022-08-30T15:22:43;3.65;;;0.40;;
71963;SDS011;59834;52.124;5.422;2022-08-30T15:25:11;2.77;;;0.50;;
71963;SDS011;59834;52.124;5.422;2022-08-30T15:27:38;2.60;;;0.50;;
71963;SDS011;59834;52.124;5.422;2022-08-30T15:30:05;1.45;;;0.30;;
71963;SDS011;59834;52.124;5.422;2022-08-30T15:32:32;4.10;;;0.47;;
71963;SDS011;59834;52.124;5.422;2022-08-30T15:34:58;1.23;;;0.40;;
71963;SDS011;59834;52.124;5.422;2022-08-30T15:37:25;1.07;;;0.33;;
71963;SDS011;59834;52.124;5.422;2022-08-30T15:39:52;2.60;;;0.50;;
71963;SDS011;59834;52.124;5.422;2022-08-30T15:42:18;5.22;;;1.02;;
71963;SDS011;59834;52.124;5.422;2022-08-30T15:44:47;4.68;;;0.40;;
71963;SDS011;59834;52.124;5.422;2022-08-30T15:47:18;3.63;;;0.50;;
71963;SDS011;59834;52.124;5.422;2022-08-30T15:49:57;2.50;;;0.60;;
71963;SDS011;59834;52.124;5.422;2022-08-30T15:52:26;6.22;;;0.50;;
71963;SDS011;59834;52.124;5.422;2022-08-30T15:54:53;1.80;;;0.50;;
71963;SDS011;59834;52.124;5.422;2022-08-30T15:57:19;1.35;;;0.40;;
71963;SDS011;59834;52.124;5.422;2022-08-30T15:59:46;1.42;;;0.57;;
71963;SDS011;59834;52.124;5.422;2022-08-30T16:02:13;2.13;;;0.50;;
71963;SDS011;59834;52.124;5.422;2022-08-30T16:04:41;4.13;;;0.40;;
71963;SDS011;59834;52.124;5.422;2022-08-30T16:07:08;1.35;;;0.60;;
71963;SDS011;59834;52.124;5.422;2022-08-30T16:09:35;4.20;;;0.50;;
71963;SDS011;59834;52.124;5.422;2022-08-30T16:12:03;2.65;;;0.40;;
71963;SDS011;59834;52.124;5.422;2022-08-30T16:14:31;1.70;;;0.53;;
71963;SDS011;59834;52.124;5.422;2022-08-30T16:16:58;1.55;;;0.32;;
71963;SDS011;59834;52.124;5.422;2022-08-30T16:19:26;3.92;;;0.52;;
71963;SDS011;59834;52.124;5.422;2022-08-30T16:21:54;1.02;;;0.35;;
71963;SDS011;59834;52.124;5.422;2022-08-30T16:24:21;2.38;;;0.70;;
71963;SDS011;59834;52.124;5.422;2022-08-30T16:26:48;1.40;;;0.33;;
71963;SDS011;59834;52.124;5.422;2022-08-30T16:29:15;1.13;;;0.40;;
71963;SDS011;59834;52.124;5.422;2022-08-30T16:31:42;2.45;;;0.30;;
71963;SDS011;59834;52.124;5.422;2022-08-30T16:34:10;2.47;;;0.30;;
71963;SDS011;59834;52.124;5.422;2022-08-30T16:36:38;1.80;;;0.20;;
71963;SDS011;59834;52.124;5.422;2022-08-30T16:39:06;1.67;;;0.63;;
71963;SDS011;59834;52.124;5.422;2022-08-30T16:41:34;1.00;;;0.40;;
71963;SDS011;59834;52.124;5.422;2022-08-30T16:44:02;2.72;;;0.68;;
71963;SDS011;59834;52.124;5.422;2022-08-30T16:46:30;4.13;;;0.45;;
71963;SDS011;59834;52.124;5.422;2022-08-30T16:48:59;2.60;;;0.30;;
71963;SDS011;59834;52.124;5.422;2022-08-30T16:51:30;2.03;;;0.30;;
71963;SDS011;59834;52.124;5.422;2022-08-30T16:54:00;2.80;;;0.43;;
71963;SDS011;59834;52.124;5.422;2022-08-30T16:56:30;1.73;;;0.30;;
71963;SDS011;59834;52.124;5.422;2022-08-30T16:58:57;2.50;;;0.30;;
71963;SDS011;59834;52.124;5.422;2022-08-30T17:01:29;2.55;;;0.35;;
71963;SDS011;59834;52.124;5.422;2022-08-30T17:03:57;3.27;;;0.40;;
71963;SDS011;59834;52.124;5.422;2022-08-30T17:06:24;3.78;;;0.30;;
71963;SDS011;59834;52.124;5.422;2022-08-30T17:08:51;1.00;;;0.30;;
71963;SDS011;59834;52.124;5.422;2022-08-30T17:11:22;5.45;;;0.40;;
71963;SDS011;59834;52.124;5.422;2022-08-30T17:13:49;1.00;;;0.30;;
71963;SDS011;59834;52.124;5.422;2022-08-30T17:16:16;1.30;;;0.30;;
71963;SDS011;59834;52.124;5.422;2022-08-30T17:18:52;3.28;;;0.30;;
71963;SDS011;59834;52.124;5.422;2022-08-30T17:21:19;5.18;;;0.30;;
71963;SDS011;59834;52.124;5.422;2022-08-30T17:23:46;1.55;;;0.30;;
71963;SDS011;59834;52.124;5.422;2022-08-30T17:26:14;1.55;;;0.40;;
71963;SDS011;59834;52.124;5.422;2022-08-30T17:28:41;4.17;;;0.50;;
71963;SDS011;59834;52.124;5.422;2022-08-30T17:31:09;3.13;;;0.30;;
71963;SDS011;59834;52.124;5.422;2022-08-30T17:33:36;1.13;;;0.47;;
71963;SDS011;59834;52.124;5.422;2022-08-30T17:36:05;1.02;;;0.38;;
71963;SDS011;59834;52.124;5.422;2022-08-30T17:38:32;2.38;;;0.40;;
71963;SDS011;59834;52.124;5.422;2022-08-30T17:41:04;1.50;;;0.37;;
71963;SDS011;59834;52.124;5.422;2022-08-30T17:43:33;4.40;;;0.40;;
71963;SDS011;59834;52.124;5.422;2022-08-30T17:46:03;3.58;;;0.63;;
71963;SDS011;59834;52.124;5.422;2022-08-30T17:48:31;0.85;;;0.30;;
71963;SDS011;59834;52.124;5.422;2022-08-30T17:50:58;3.10;;;0.30;;